Dell, Arkansas
Current Conditions -  °F | °C
As of 3:53 AM on Sunday 21 Dec 2014 (Local Time) from KHKA Reporting Station
Clear Clear  
Wind Chill: -1°   Ceiling: Unl
Heat Index: -1°   Visibility: 9mi
Dew Point: -2°   Wind: 3mph
Humidity: 92%   Direction: 70°ENE
Pressure: 30.23"   Gusts: NA
Location:  35.86°N, 90.04°W
Report Text: KHKA 210953Z AUTO 07003KT 9SM CLR M01/M02 A3023 RMK AO2 SLP239 T10111022
Loading
Personal Weather Stations






























Interactive Weather Map New forecast layout! Learn more

10-Day Weather Forecast

Advertisements
Track Severe Weather on mobile